ADDS METAR Data INFO
IDs: Format: Raw Decoded Include TAF

Data at: 0025 UTC 11 Dec 2017

KCUL 110015Z AUTO 00000KT 10SM CLR 05/M02 A3008 RMK AO2 T00461022
KCUL 102355Z AUTO 23006KT 10SM CLR 04/M03 A3007 RMK AO2 T00381027 10084 20032
KCUL 102335Z AUTO 24003KT 10SM CLR 04/M03 A3007 RMK AO2 T00361028
KCUL 102315Z AUTO 23006KT 10SM CLR 04/M03 A3006 RMK AO2 T00401027
KCUL 102255Z AUTO 22007KT 10SM CLR 05/M03 A3004 RMK AO2 T00501027
KCUL 102235Z AUTO 23008KT 10SM CLR 06/M03 A3004 RMK AO2 T00581026
KCUL 102215Z AUTO 23009KT 10SM CLR 07/M03 A3003 RMK AO2 T00681026
KCUL 102155Z AUTO 23009KT 10SM CLR 08/M03 A3003 RMK AO2 T00751027
KCUL 102135Z AUTO 23013G20KT 10SM CLR 08/M03 A3002 RMK AO2 T00801030
KCUL 102115Z AUTO 23013KT 10SM CLR 08/M03 A3002 RMK AO2 T00811029
KCUL 102055Z AUTO 22015KT 10SM CLR 08/M03 A3001 RMK AO2 T00811033
KCUL 102035Z AUTO 21015G21KT 10SM CLR 08/M03 A3001 RMK AO2 T00821033
KCUL 102015Z AUTO 23012G15KT 10SM SCT110 08/M03 A3002 RMK AO2 T00801033
KCUL 101955Z AUTO 21014G20KT 10SM SCT120 08/M03 A3000 RMK AO2 T00781035
KCUL 101935Z AUTO 20011G19KT 10SM CLR 07/M04 A3000 RMK AO2 T00651041
KCUL 101915Z AUTO 21011G20KT 10SM CLR 06/M04 A3002 RMK AO2 T00631041
KCUL 101855Z AUTO 21011G20KT 10SM CLR 06/M04 A3003 RMK AO2 T00601045
KCUL 101835Z AUTO 20016G19KT 10SM CLR 06/M04 A3003 RMK AO2 T00601044
KCUL 101815Z AUTO 20015G19KT 10SM CLR 06/M05 A3006 RMK AO2 T00581046
KCUL 101755Z AUTO 20018G24KT 10SM CLR 06/M04 A3005 RMK AO2 T00551044 10055 21067
KCUL 101735Z AUTO 20017G22KT 10SM CLR 05/M04 A3007 RMK AO2 T00531044
KCUL 101715Z AUTO 20018G21KT 10SM CLR 05/M05 A3009 RMK AO2 T00451049
KCUL 101655Z AUTO 20015KT 10SM CLR 04/M05 A3011 RMK AO2 T00391049
KCUL 101635Z AUTO 21015G19KT 10SM CLR 03/M05 A3012 RMK AO2 T00281052
KCUL 101615Z AUTO 20013KT 10SM CLR 02/M05 A3013 RMK AO2 T00211051
KCUL 101555Z AUTO 20011G22KT 10SM CLR 01/M05 A3014 RMK AO2 T00111055
KCUL 101535Z AUTO 21015G22KT 10SM CLR 00/M05 A3015 RMK AO2 T00041053
KCUL 101515Z AUTO 21012G17KT 10SM CLR 00/M06 A3016 RMK AO2 T10041056
KCUL 101455Z AUTO 21012KT 10SM CLR M01/M06 A3017 RMK AO2 T10101059
KCUL 101435Z AUTO 21011KT 10SM CLR M01/M06 A3018 RMK AO2 T10151062
KCUL 101415Z AUTO 20008KT 10SM CLR M02/M07 A3017 RMK AO2 T10251066
KCUL 101355Z AUTO 21008KT 10SM CLR M03/M07 A3018 RMK AO2 T10321070
KCUL 101335Z AUTO 21006KT 10SM CLR M04/M07 A3018 RMK AO2 T10451075
KCUL 101315Z AUTO 20004KT 10SM CLR M06/M08 A3018 RMK AO2 T10591079
KCUL 101255Z AUTO 18006KT 10SM CLR M06/M08 A3017 RMK AO2 T10581079
KCUL 101235Z AUTO 19006KT 10SM CLR M06/M08 A3017 RMK AO2 T10571078
KCUL 101215Z AUTO 22006KT 10SM CLR M06/M08 A3019 RMK AO2 T10561081
KCUL 101155Z AUTO 00000KT 10SM CLR M06/M09 A3020 RMK AO2 T10651087 11052 21070
KCUL 101135Z AUTO 20004KT 10SM CLR M06/M08 A3020 RMK AO2 T10571085
KCUL 101115Z AUTO 22005KT 10SM CLR M06/M08 A3019 RMK AO2 T10591085
KCUL 101055Z AUTO 22004KT 10SM CLR M06/M08 A3019 RMK AO2 T10591085
KCUL 101035Z AUTO 23006KT 10SM CLR M06/M08 A3019 RMK AO2 T10581085
KCUL 101015Z AUTO 22004KT 10SM CLR M06/M09 A3019 RMK AO2 T10601088
KCUL 100955Z AUTO 21004KT 10SM CLR M06/M09 A3019 RMK AO2 T10621089
KCUL 100935Z AUTO 24005KT 10SM CLR M06/M09 A3020 RMK AO2 T10611087
KCUL 100915Z AUTO 23005KT 10SM CLR M06/M09 A3020 RMK AO2 T10581086
KCUL 100855Z AUTO 23005KT 10SM CLR M06/M08 A3020 RMK AO2 T10581085
KCUL 100835Z AUTO 24004KT 10SM CLR M06/M09 A3021 RMK AO2 T10621090
KCUL 100815Z AUTO 23003KT 10SM CLR M06/M08 A3020 RMK AO2 T10611085
KCUL 100755Z AUTO 25004KT 10SM CLR M06/M09 A3020 RMK AO2 T10601087
KCUL 100735Z AUTO 25003KT 10SM CLR M06/M09 A3020 RMK AO2 T10591088
KCUL 100715Z AUTO 25004KT 10SM CLR M05/M09 A3020 RMK AO2 T10551086
KCUL 100655Z AUTO 25004KT 10SM CLR M05/M08 A3020 RMK AO2 T10521085
KCUL 100635Z AUTO 26004KT 10SM CLR M06/M09 A3020 RMK AO2 T10571087
KCUL 100615Z AUTO 26005KT 10SM CLR M06/M09 A3020 RMK AO2 T10571087
KCUL 100555Z AUTO 25005KT 10SM CLR M06/M09 A3021 RMK AO2 T10561087 10000 21056 400341056
KCUL 100535Z AUTO 25004KT 10SM CLR M05/M09 A3020 RMK AO2 T10501086
KCUL 100515Z AUTO 27004KT 10SM CLR M05/M08 A3021 RMK AO2 T10461083
KCUL 100455Z AUTO 27004KT 10SM CLR M04/M08 A3021 RMK AO2 T10421082
KCUL 100435Z AUTO 26004KT 10SM CLR M05/M08 A3021 RMK AO2 T10481084
KCUL 100415Z AUTO 26004KT 10SM CLR M05/M09 A3021 RMK AO2 T10541089
KCUL 100355Z AUTO 25004KT 10SM CLR M04/M09 A3020 RMK AO2 T10411086
KCUL 100335Z AUTO 25003KT 10SM CLR M05/M09 A3020 RMK AO2 T10471089
KCUL 100315Z AUTO 28004KT 10SM CLR M04/M08 A3019 RMK AO2 T10401084
KCUL 100255Z AUTO 29004KT 10SM CLR M03/M08 A3019 RMK AO2 T10331083
KCUL 100235Z AUTO 28004KT 10SM CLR M03/M08 A3019 RMK AO2 T10331084
KCUL 100215Z AUTO 29006KT 10SM CLR M03/M08 A3018 RMK AO2 T10281082
KCUL 100155Z AUTO 30006KT 10SM SCT046 M02/M08 A3018 RMK AO2 T10181084
KCUL 100135Z AUTO 30007KT 10SM SCT046 M01/M08 A3018 RMK AO2 T10091085
KCUL 100115Z AUTO 31009G16KT 10SM OVC046 00/M08 A3017 RMK AO2 T10041085
KCUL 100055Z AUTO 30009KT 10SM OVC048 00/M08 A3017 RMK AO2 T10031085
KCUL 100035Z AUTO 31013G17KT 10SM OVC048 00/M08 A3016 RMK AO2 T10011083
KCUL 100015Z AUTO 31010KT 10SM OVC048 00/M08 A3015 RMK AO2 T10011082
KCUL 092355Z AUTO 31012KT 10SM OVC048 00/M08 A3013 RMK AO2 T00001081 10034 20000
KCUL 092335Z AUTO 32013KT 10SM OVC048 00/M08 A3012 RMK AO2 T00011080
KCUL 092315Z AUTO 33012G16KT 10SM OVC048 00/M08 A3011 RMK AO2 T00021079
KCUL 092255Z AUTO 33014G20KT 10SM OVC050 00/M08 A3009 RMK AO2 T00031080
KCUL 092235Z AUTO 32012G23KT 10SM OVC050 01/M08 A3007 RMK AO2 T00071079
KCUL 092215Z AUTO 32014G23KT 10SM OVC050 01/M08 A3006 RMK AO2 T00121077
KCUL 092155Z AUTO 31015G21KT 10SM OVC050 02/M07 A3004 RMK AO2 T00171073
KCUL 092135Z AUTO 30015G22KT 10SM OVC050 02/M07 A3003 RMK AO2 T00201075
KCUL 092115Z AUTO 30018G24KT 10SM OVC050 02/M07 A3001 RMK AO2 T00221074
KCUL 092055Z AUTO 30020G24KT 10SM OVC050 03/M08 A3000 RMK AO2 T00251080
KCUL 092035Z AUTO 29020G26KT 10SM BKN050 03/M08 A2998 RMK AO2 T00301077
KCUL 092015Z AUTO 30020G26KT 10SM OVC050 03/M08 A2997 RMK AO2 T00251076
KCUL 091955Z AUTO 30015G22KT 10SM BKN050 02/M07 A2995 RMK AO2 T00211073
KCUL 091935Z AUTO 30019G23KT 10SM OVC050 03/M07 A2994 RMK AO2 T00261072
KCUL 091915Z AUTO 31017G25KT 10SM SCT043 SCT050 OVC055 03/M07 A2993 RMK AO2 T00251066
KCUL 091855Z AUTO 30018G23KT 10SM SCT045 OVC050 02/M06 A2992 RMK AO2 T00241056
KCUL 091835Z AUTO 30012G22KT 10SM SCT041 OVC049 02/M05 A2992 RMK AO2 T00191052
KCUL 091815Z AUTO 30015G21KT 10SM SCT034 BKN046 02/M04 A2991 RMK AO2 T00211045
KCUL 091755Z AUTO 29017G23KT 10SM SCT030 OVC043 02/M04 A2991 RMK AO2 T00161043 10017 21016
KCUL 091735Z AUTO 28018G22KT 10SM SCT028 SCT035 OVC047 02/M04 A2990 RMK AO2 T00161037
KCUL 091715Z AUTO 29018G23KT 10SM BKN028 OVC049 02/M04 A2990 RMK AO2 T00151036
KCUL 091655Z AUTO 28014G20KT 10SM BKN028 BKN036 OVC045 01/M04 A2989 RMK AO2 T00111038
KCUL 091635Z AUTO 29015G19KT 10SM SCT035 OVC043 01/M04 A2989 RMK AO2 T00101039
KCUL 091615Z AUTO 28012KT 10SM BKN029 BKN037 OVC043 01/M04 A2989 RMK AO2 T00061039
KCUL 091555Z AUTO 27012G16KT 10SM OVC025 00/M04 A2989 RMK AO2 T00011044
KCUL 091535Z AUTO 26010KT 10SM OVC023 00/M05 A2989 RMK AO2 T00001050
KCUL 091515Z AUTO 26008KT 10SM OVC025 00/M05 A2988 RMK AO2 T00001052
KCUL 091455Z AUTO 26009KT 10SM OVC025 00/M05 A2988 RMK AO2 T10051055
KCUL 091435Z AUTO 25008KT 10SM OVC025 M01/M06 A2987 RMK AO2 T10071060
KCUL 091415Z AUTO 25009KT 10SM OVC025 M01/M06 A2987 RMK AO2 T10081063
KCUL 091355Z AUTO 25009KT 10SM OVC025 M01/M06 A2987 RMK AO2 T10101064
KCUL 091335Z AUTO 24009KT 10SM OVC025 M01/M07 A2986 RMK AO2 T10111067
KCUL 091315Z AUTO 23009KT 10SM SCT027 BKN065 OVC085 M01/M07 A2985 RMK AO2 T10121070
KCUL 091255Z AUTO 23010KT 10SM SCT055 BKN070 OVC085 M01/M07 A2985 RMK AO2 T10151070
KCUL 091235Z AUTO 23009KT 10SM SCT042 BKN050 OVC070 M01/M07 A2986 RMK AO2 T10151072